Time;durP1;ratioP1;P1;durP2;ratioP2;P2;SDS_P1;SDS_P2;PMS_P1;PMS_P2;Temp;Humidity;BMP_temperature;BMP_pressure;BME280_temperature;BME280_humidity;BME280_pressure;Samples;Min_cycle;Max_cycle;Signal;HPM_P1;HPM_P2
2023/06/21 00:01:40;;;;;;;35.08;7.22;;;;;;;21.59;100.00;100160.75;5020000;28;20234;-77
2023/06/21 00:04:07;;;;;;;25.42;5.20;;;;;;;21.38;100.00;100167.88;5037565;28;20716;-76
2023/06/21 00:06:34;;;;;;;27.23;5.35;;;;;;;21.51;100.00;100184.41;5013520;28;20284;-77
2023/06/21 00:09:05;;;;;;;35.83;7.68;;;;;;;21.40;100.00;100192.91;5035266;28;20237;-77
2023/06/21 00:11:33;;;;;;;28.63;5.47;;;;;;;21.43;100.00;100207.16;5034793;28;20254;-77
2023/06/21 00:14:00;;;;;;;43.20;8.85;;;;;;;21.50;100.00;100196.09;5016501;28;20899;-77
2023/06/21 00:16:27;;;;;;;23.42;4.47;;;;;;;21.38;100.00;100204.66;5023343;28;20255;-76
2023/06/21 00:18:54;;;;;;;50.03;11.27;;;;;;;21.39;100.00;100222.53;5031580;28;20230;-77
2023/06/21 00:21:21;;;;;;;29.10;5.82;;;;;;;21.32;100.00;100232.66;5032902;28;20237;-77
2023/06/21 00:23:48;;;;;;;49.95;11.82;;;;;;;21.24;100.00;100224.00;5032358;28;20233;-76
2023/06/21 00:26:15;;;;;;;27.75;5.53;;;;;;;21.16;100.00;100220.69;5031128;28;20238;-77
2023/06/21 00:28:41;;;;;;;36.33;7.63;;;;;;;21.14;100.00;100246.78;5031686;28;20225;-77
2023/06/21 00:31:10;;;;;;;29.48;5.70;;;;;;;21.15;100.00;100255.72;5032174;28;20637;-77
2023/06/21 00:33:38;;;;;;;35.13;7.07;;;;;;;21.20;100.00;100268.06;5015778;28;20778;-77
2023/06/21 00:36:05;;;;;;;26.13;4.95;;;;;;;21.26;100.00;100285.81;5020667;28;20229;-77
2023/06/21 00:38:34;;;;;;;21.38;4.05;;;;;;;20.98;100.00;100278.72;5041351;28;20221;-76
2023/06/21 00:41:07;;;;;;;21.55;4.22;;;;;;;21.14;100.00;100289.78;5032416;28;20251;-77
2023/06/21 00:43:34;;;;;;;22.15;4.40;;;;;;;21.21;100.00;100309.28;5041280;28;20238;-77
2023/06/21 00:46:01;;;;;;;34.15;7.30;;;;;;;21.16;100.00;100322.00;5034073;28;20226;-77
2023/06/21 00:48:29;;;;;;;25.27;5.53;;;;;;;21.19;100.00;100319.22;5039339;28;20706;-77
2023/06/21 00:50:56;;;;;;;63.83;14.32;;;;;;;21.17;100.00;100332.72;5023137;28;20287;-76
2023/06/21 00:53:24;;;;;;;19.38;3.88;;;;;;;21.16;100.00;100349.78;5034029;28;20234;-77
2023/06/21 00:55:51;;;;;;;52.72;11.68;;;;;;;21.06;100.00;100372.56;5012741;28;20233;-76
2023/06/21 00:58:20;;;;;;;23.23;4.60;;;;;;;20.94;100.00;100387.28;5036931;28;20225;-77
2023/06/21 01:00:49;;;;;;;47.83;10.80;;;;;;;20.96;100.00;100406.06;5033615;28;20227;-77
2023/06/21 01:03:18;;;;;;;19.88;4.13;;;;;;;20.89;100.00;100429.59;5037359;28;20244;-76
2023/06/21 01:06:01;;;;;;;44.45;10.25;;;;;;;20.85;100.00;100441.38;5033903;28;20250;-76
2023/06/21 01:08:41;;;;;;;20.05;4.07;;;;;;;20.91;100.00;100445.66;5019245;28;20226;-77
2023/06/21 01:11:20;;;;;;;24.05;4.65;;;;;;;20.91;100.00;100418.78;5014657;28;20237;-77
2023/06/21 01:14:13;;;;;;;45.45;10.60;;;;;;;21.04;100.00;100395.94;5029912;28;20619;-76
2023/06/21 01:16:44;;;;;;;23.63;5.30;;;;;;;20.87;100.00;100407.25;5013889;28;20325;-76
2023/06/21 01:19:35;;;;;;;33.10;6.68;;;;;;;20.72;100.00;100438.19;5010071;28;20307;-76
2023/06/21 01:22:32;;;;;;;20.08;4.03;;;;;;;20.51;100.00;100454.09;5005896;28;20717;-76
2023/06/21 01:25:11;;;;;;;40.03;8.07;;;;;;;20.63;100.00;100465.34;4988663;28;20238;-76
2023/06/21 01:27:48;;;;;;;21.25;4.95;;;;;;;20.39;100.00;100468.78;5018090;28;20230;-76
2023/06/21 01:30:16;;;;;;;20.20;3.85;;;;;;;20.48;100.00;100481.06;5014946;28;20253;-76
2023/06/21 01:32:43;;;;;;;32.13;6.70;;;;;;;20.60;100.00;100465.44;4991113;28;20226;-76
2023/06/21 01:35:11;;;;;;;22.63;4.90;;;;;;;20.65;100.00;100444.69;4992935;28;20241;-76
2023/06/21 01:37:42;;;;;;;26.60;5.18;;;;;;;20.49;100.00;100451.47;5008729;28;20241;-76
2023/06/21 01:40:11;;;;;;;25.05;4.88;;;;;;;20.10;100.00;100457.09;5010848;28;20241;-76
2023/06/21 01:42:39;;;;;;;20.80;3.97;;;;;;;19.98;100.00;100478.06;5038416;28;20223;-81
2023/06/21 01:45:06;;;;;;;21.50;4.15;;;;;;;20.21;100.00;100480.06;5014695;28;20230;-81
2023/06/21 01:47:34;;;;;;;20.15;3.88;;;;;;;20.26;100.00;100484.38;5017191;28;20250;-81
2023/06/21 01:50:03;;;;;;;22.75;4.18;;;;;;;20.06;100.00;100484.97;4997215;28;20238;-81
2023/06/21 01:52:30;;;;;;;21.25;4.03;;;;;;;19.99;100.00;100485.19;5018392;28;20238;-81
2023/06/21 01:54:57;;;;;;;83.63;15.95;;;;;;;19.98;100.00;100515.63;5010593;28;20317;-79
2023/06/21 01:57:26;;;;;;;15.88;3.17;;;;;;;20.07;100.00;100526.09;5001038;28;20226;-75
2023/06/21 01:59:53;;;;;;;77.00;15.52;;;;;;;20.14;100.00;100527.69;5007439;28;20214;-76
2023/06/21 02:02:22;;;;;;;21.73;4.22;;;;;;;20.23;100.00;100511.31;5000233;28;20230;-76
2023/06/21 02:04:50;;;;;;;65.82;13.60;;;;;;;20.33;100.00;100485.06;5000218;28;20706;-75
2023/06/21 02:07:17;;;;;;;18.98;3.83;;;;;;;20.46;100.00;100483.81;5003719;28;20230;-76
2023/06/21 02:09:44;;;;;;;34.72;7.97;;;;;;;20.47;100.00;100456.00;5013238;28;20300;-75
2023/06/21 02:12:11;;;;;;;13.40;2.78;;;;;;;20.46;100.00;100456.94;5020248;28;20226;-76
2023/06/21 02:14:38;;;;;;;22.02;4.50;;;;;;;20.40;100.00;100490.25;5013716;28;20596;-75
2023/06/21 02:17:05;;;;;;;28.30;5.68;;;;;;;20.43;100.00;100498.19;5015084;28;20230;-75
2023/06/21 02:19:32;;;;;;;26.70;5.28;;;;;;;20.50;100.00;100480.09;5032074;28;20230;-75
2023/06/21 02:21:59;;;;;;;34.95;7.47;;;;;;;20.55;100.00;100478.13;5020456;28;20234;-75
2023/06/21 02:24:26;;;;;;;30.00;5.97;;;;;;;20.49;100.00;100480.13;5032143;28;20225;-76
2023/06/21 02:26:53;;;;;;;39.85;9.68;;;;;;;20.54;100.00;100460.25;4997526;28;20222;-75
2023/06/21 02:29:21;;;;;;;40.70;7.97;;;;;;;20.65;100.00;100466.16;5021172;28;20256;-79
2023/06/21 02:31:48;;;;;;;73.35;13.00;;;;;;;20.60;100.00;100478.00;5004033;28;20876;-80
2023/06/21 02:34:15;;;;;;;30.55;5.88;;;;;;;20.54;100.00;100478.19;5027389;28;20249;-79
2023/06/21 02:36:42;;;;;;;35.10;6.55;;;;;;;20.59;100.00;100463.69;4990604;28;20249;-79
2023/06/21 02:39:10;;;;;;;27.08;5.13;;;;;;;20.53;100.00;100460.31;5033105;28;20370;-79
2023/06/21 02:41:37;;;;;;;26.80;5.15;;;;;;;20.49;100.00;100472.97;5030847;28;20225;-80
2023/06/21 02:44:04;;;;;;;28.10;5.40;;;;;;;20.48;100.00;100471.19;5028697;28;20234;-79
2023/06/21 02:46:31;;;;;;;26.45;5.05;;;;;;;20.47;100.00;100472.13;5019607;28;20237;-79
2023/06/21 02:48:58;;;;;;;38.90;7.78;;;;;;;20.50;100.00;100481.91;5012229;28;20234;-80
2023/06/21 02:51:25;;;;;;;17.08;3.30;;;;;;;20.44;100.00;100473.09;5020278;28;20222;-75
2023/06/21 02:53:52;;;;;;;55.67;12.75;;;;;;;20.40;100.00;100489.34;5013322;28;20264;-75
2023/06/21 02:56:20;;;;;;;30.50;5.93;;;;;;;20.37;100.00;100484.03;5018025;28;20603;-75
2023/06/21 02:58:47;;;;;;;46.00;10.70;;;;;;;20.04;100.00;100499.34;5017210;28;20692;-76
2023/06/21 03:01:15;;;;;;;31.33;5.97;;;;;;;19.95;100.00;100499.63;5038584;28;20272;-75
2023/06/21 03:03:44;;;;;;;35.47;7.53;;;;;;;19.95;100.00;100516.59;4987702;28;20226;-75
2023/06/21 03:06:11;;;;;;;29.65;5.65;;;;;;;19.94;100.00;100520.22;5033003;28;20282;-76
2023/06/21 03:08:38;;;;;;;21.85;4.28;;;;;;;20.02;100.00;100510.13;5035240;28;20230;-76
2023/06/21 03:11:08;;;;;;;20.02;3.85;;;;;;;20.00;100.00;100520.03;5038962;28;20295;-75
2023/06/21 03:13:38;;;;;;;24.48;4.72;;;;;;;19.83;100.00;100533.03;5042258;28;20234;-75
2023/06/21 03:16:05;;;;;;;35.03;6.65;;;;;;;19.79;100.00;100534.94;5035615;28;20655;-76
2023/06/21 03:18:31;;;;;;;28.27;5.38;;;;;;;19.83;100.00;100548.25;5041640;28;20241;-75
2023/06/21 03:21:01;;;;;;;32.30;6.85;;;;;;;19.76;100.00;100553.78;5036522;28;20346;-76
2023/06/21 03:23:28;;;;;;;18.17;3.53;;;;;;;19.76;100.00;100564.53;5042133;28;20234;-75
2023/06/21 03:25:55;;;;;;;54.75;12.43;;;;;;;19.82;100.00;100571.53;5032911;28;20231;-76
2023/06/21 03:28:21;;;;;;;21.20;4.15;;;;;;;19.81;100.00;100583.19;5041525;28;20279;-75
2023/06/21 03:30:48;;;;;;;49.80;10.90;;;;;;;19.83;100.00;100597.44;5031468;28;20288;-76
2023/06/21 03:33:15;;;;;;;20.92;4.60;;;;;;;19.78;100.00;100605.63;5042299;28;20234;-76
2023/06/21 03:35:42;;;;;;;33.72;7.20;;;;;;;19.91;100.00;100605.31;5033911;28;20280;-75
2023/06/21 03:38:09;;;;;;;25.58;5.03;;;;;;;19.86;100.00;100618.84;5039733;28;20238;-76
2023/06/21 03:40:35;;;;;;;23.40;4.45;;;;;;;19.85;100.00;100627.81;5038770;28;20234;-75
2023/06/21 03:43:02;;;;;;;25.38;4.80;;;;;;;19.87;100.00;100628.66;5035517;28;21761;-75
2023/06/21 03:45:29;;;;;;;28.73;5.40;;;;;;;19.94;100.00;100643.69;5039117;28;20222;-76
2023/06/21 03:47:55;;;;;;;51.88;12.32;;;;;;;19.91;100.00;100656.31;5031829;28;20235;-75
2023/06/21 03:50:23;;;;;;;21.52;4.32;;;;;;;19.91;100.00;100684.03;5045734;28;20222;-75
2023/06/21 03:52:49;;;;;;;58.40;12.82;;;;;;;19.85;100.00;100708.34;5028505;28;20234;-75
2023/06/21 03:55:18;;;;;;;23.92;4.63;;;;;;;19.86;100.00;100733.38;5033606;28;20230;-75
2023/06/21 03:57:45;;;;;;;54.85;12.05;;;;;;;19.89;100.00;100728.81;5036288;28;20238;-75
2023/06/21 04:00:13;;;;;;;37.67;7.28;;;;;;;20.01;100.00;100724.94;5038598;28;20655;-75
2023/06/21 04:02:40;;;;;;;30.40;5.85;;;;;;;20.00;100.00;100734.78;5000040;28;20252;-75
2023/06/21 04:05:09;;;;;;;21.92;4.35;;;;;;;20.03;100.00;100744.56;5039545;28;20222;-75
2023/06/21 04:07:39;;;;;;;31.83;5.95;;;;;;;20.06;100.00;100742.69;5039325;28;20226;-76
2023/06/21 04:10:12;;;;;;;25.10;5.07;;;;;;;20.12;100.00;100734.47;5013505;28;20235;-77
2023/06/21 04:12:39;;;;;;;33.70;9.80;;;;;;;20.14;100.00;100726.38;5035829;28;20234;-76
2023/06/21 04:15:06;;;;;;;32.35;7.32;;;;;;;20.17;100.00;100736.16;5038687;28;20317;-75
2023/06/21 04:17:33;;;;;;;32.28;6.28;;;;;;;20.17;100.00;100726.31;5041430;28;20645;-76
2023/06/21 04:20:00;;;;;;;35.35;7.57;;;;;;;20.19;100.00;100711.03;5034475;28;20234;-76
2023/06/21 04:22:29;;;;;;;27.92;5.55;;;;;;;20.12;100.00;100712.13;5039036;28;20226;-76
2023/06/21 04:24:56;;;;;;;56.08;13.15;;;;;;;20.11;100.00;100699.63;5027092;28;20231;-76
2023/06/21 04:27:22;;;;;;;20.63;4.00;;;;;;;20.13;100.00;100695.09;5034465;28;20245;-76
2023/06/21 04:29:49;;;;;;;49.17;11.32;;;;;;;20.11;100.00;100684.38;5034258;28;20249;-76
2023/06/21 04:32:17;;;;;;;25.15;4.82;;;;;;;20.06;100.00;100675.56;5033571;28;20230;-76
2023/06/21 04:34:48;;;;;;;52.72;12.13;;;;;;;20.07;100.00;100665.72;5018013;28;20317;-76
2023/06/21 04:37:15;;;;;;;23.52;4.97;;;;;;;20.06;100.00;100688.13;5040206;28;20230;-76
2023/06/21 04:39:42;;;;;;;33.45;7.43;;;;;;;20.03;100.00;100710.56;5038101;28;20222;-76
2023/06/21 04:42:08;;;;;;;21.92;4.45;;;;;;;20.03;100.00;100715.94;5022658;28;20229;-76
2023/06/21 04:44:35;;;;;;;22.52;4.50;;;;;;;20.15;100.00;100712.03;5041404;28;20222;-80
2023/06/21 04:47:02;;;;;;;20.33;4.03;;;;;;;20.11;100.00;100713.03;5029619;28;20233;-80
2023/06/21 04:49:29;;;;;;;21.77;4.32;;;;;;;20.10;100.00;100700.53;5032579;28;20222;-80
2023/06/21 04:51:58;;;;;;;39.58;9.35;;;;;;;20.02;100.00;100703.41;5038051;28;20318;-79
2023/06/21 04:54:25;;;;;;;25.73;5.13;;;;;;;20.06;100.00;100713.16;5043443;28;20321;-79
2023/06/21 04:56:52;;;;;;;60.28;13.90;;;;;;;20.06;100.00;100704.22;5038044;28;20222;-80
2023/06/21 04:59:19;;;;;;;19.20;3.83;;;;;;;20.01;100.00;100728.50;5044702;28;20226;-80
2023/06/21 05:01:46;;;;;;;41.05;8.07;;;;;;;20.02;100.00;100745.50;5047922;28;20230;-80
2023/06/21 05:04:13;;;;;;;26.38;5.50;;;;;;;19.97;100.00;100772.44;5025444;28;20329;-79
2023/06/21 05:06:41;;;;;;;33.38;6.45;;;;;;;19.91;100.00;100786.03;5029150;28;20646;-79
2023/06/21 05:09:11;;;;;;;31.48;6.15;;;;;;;20.02;100.00;100804.56;5043399;28;20222;-80
2023/06/21 05:11:38;;;;;;;44.10;13.20;;;;;;;19.90;100.00;100807.53;5044886;28;20229;-80
2023/06/21 05:14:05;;;;;;;35.10;6.75;;;;;;;19.91;100.00;100823.59;5028685;28;20234;-78
2023/06/21 05:16:32;;;;;;;28.55;5.53;;;;;;;20.00;100.00;100827.88;5047445;28;20234;-80
2023/06/21 05:18:59;;;;;;;38.10;7.10;;;;;;;20.04;100.00;100826.88;5042876;28;20244;-79
2023/06/21 05:21:25;;;;;;;25.77;5.25;;;;;;;19.97;100.00;100820.78;5049511;28;20233;-78
2023/06/21 05:23:52;;;;;;;55.67;10.55;;;;;;;20.02;100.00;100837.66;5036213;28;20234;-80
2023/06/21 05:26:19;;;;;;;34.85;6.68;;;;;;;20.09;100.00;100852.69;5044756;28;20284;-79
2023/06/21 05:28:46;;;;;;;63.50;12.93;;;;;;;20.11;100.00;100858.91;5042046;28;20252;-81
2023/06/21 05:31:13;;;;;;;25.02;5.25;;;;;;;20.13;100.00;100870.50;5042731;28;20245;-80
2023/06/21 05:33:40;;;;;;;32.15;7.53;;;;;;;20.19;100.00;100882.91;5041456;28;20252;-82
2023/06/21 05:36:06;;;;;;;32.22;6.57;;;;;;;20.12;100.00;100900.09;5047289;28;20241;-79
2023/06/21 05:38:33;;;;;;;20.48;4.20;;;;;;;20.04;100.00;100911.00;5048412;28;20234;-80
2023/06/21 05:41:00;;;;;;;33.15;6.22;;;;;;;20.04;100.00;100910.13;5046382;28;20238;-80
2023/06/21 05:43:27;;;;;;;19.67;4.57;;;;;;;19.98;100.00;100907.56;5032118;28;20222;-79
2023/06/21 05:45:53;;;;;;;64.20;13.50;;;;;;;20.16;100.00;100927.75;5045044;28;20230;-79
2023/06/21 05:48:20;;;;;;;23.52;5.07;;;;;;;20.30;100.00;100928.31;5049745;28;20876;-80
2023/06/21 05:50:47;;;;;;;67.25;12.88;;;;;;;20.44;100.00;100928.91;5040361;28;20229;-80
2023/06/21 05:53:14;;;;;;;24.48;4.75;;;;;;;20.53;100.00;100931.38;5026838;28;20237;-79
2023/06/21 05:55:41;;;;;;;33.10;9.02;;;;;;;20.71;100.00;100935.41;5038993;28;20226;-79
2023/06/21 05:58:07;;;;;;;21.27;5.13;;;;;;;20.98;100.00;100925.81;5015473;28;20230;-77
2023/06/21 06:00:34;;;;;;;22.60;6.57;;;;;;;20.89;100.00;100902.72;5039222;28;20221;-75
2023/06/21 06:03:01;;;;;;;43.08;8.77;;;;;;;21.19;100.00;100900.16;5034934;28;20229;-75
2023/06/21 06:05:28;;;;;;;23.00;4.60;;;;;;;21.46;100.00;100903.91;5040150;28;20261;-74
2023/06/21 06:07:55;;;;;;;54.38;12.55;;;;;;;21.32;100.00;100878.28;5030810;28;20240;-74
2023/06/21 06:10:21;;;;;;;21.73;4.28;;;;;;;21.38;100.00;100872.72;5027434;28;20321;-74
2023/06/21 06:12:48;;;;;;;38.55;8.60;;;;;;;21.73;100.00;100873.50;5016341;28;20266;-74
2023/06/21 06:15:15;;;;;;;24.65;5.05;;;;;;;21.80;100.00;100852.66;5040284;28;20697;-75
2023/06/21 06:17:42;;;;;;;34.15;7.60;;;;;;;22.09;100.00;100854.47;5027542;28;20343;-75
2023/06/21 06:20:10;;;;;;;24.90;4.80;;;;;;;22.24;100.00;100837.84;5039021;28;20276;-76
2023/06/21 06:22:37;;;;;;;23.23;5.38;;;;;;;22.37;100.00;100833.84;5035023;28;20230;-75
2023/06/21 06:25:04;;;;;;;23.20;4.57;;;;;;;22.37;100.00;100825.75;5031769;28;20605;-75
2023/06/21 06:27:31;;;;;;;25.85;5.65;;;;;;;22.59;100.00;100826.78;5039666;28;20237;-75
2023/06/21 06:29:58;;;;;;;49.50;10.55;;;;;;;22.93;100.00;100828.34;5029790;28;20279;-76
2023/06/21 06:32:26;;;;;;;27.05;5.15;;;;;;;22.90;100.00;100801.47;5039176;28;20222;-75
2023/06/21 06:34:54;;;;;;;49.58;11.70;;;;;;;23.05;100.00;100778.44;5034684;28;20246;-76
2023/06/21 06:37:23;;;;;;;24.70;4.93;;;;;;;23.25;100.00;100754.31;5040185;28;20234;-76
2023/06/21 06:39:57;;;;;;;59.92;13.52;;;;;;;23.41;100.00;100722.25;5030575;28;20240;-76
2023/06/21 06:42:24;;;;;;;22.42;4.47;;;;;;;23.40;100.00;100690.75;5039894;28;20222;-75
2023/06/21 06:44:52;;;;;;;61.47;14.23;;;;;;;23.55;100.00;100682.09;5017825;28;20225;-77
2023/06/21 06:47:19;;;;;;;24.00;4.75;;;;;;;23.52;100.00;100653.38;5027984;28;20316;-76
2023/06/21 06:49:46;;;;;;;69.03;16.52;;;;;;;23.37;100.00;100634.19;5013403;28;20226;-79
2023/06/21 06:52:13;;;;;;;26.25;5.53;;;;;;;23.51;100.00;100631.84;5042009;28;20225;-80
2023/06/21 06:54:40;;;;;;;25.30;5.07;;;;;;;23.44;100.00;100623.13;5041112;28;20234;-79
2023/06/21 06:57:06;;;;;;;25.67;5.22;;;;;;;23.48;100.00;100618.47;5039976;28;20245;-80
2023/06/21 06:59:41;;;;;;;30.95;6.50;;;;;;;23.44;100.00;100616.84;5039241;28;20283;-77
2023/06/21 07:02:08;;;;;;;47.42;31.20;;;;;;;23.44;100.00;100604.22;5007686;28;20230;-77
2023/06/21 07:04:35;;;;;;;36.67;15.48;;;;;;;23.50;100.00;100605.78;5041281;28;20230;-78
2023/06/21 07:07:06;;;;;;;23.00;7.80;;;;;;;23.46;100.00;100596.94;5038398;28;20241;-80
2023/06/21 07:09:33;;;;;;;32.33;11.75;;;;;;;23.59;100.00;100605.44;5041533;28;20222;-78
2023/06/21 07:12:01;;;;;;;35.00;7.53;;;;;;;23.60;100.00;100591.00;5039127;28;20690;-78
2023/06/21 07:14:28;;;;;;;23.55;4.82;;;;;;;23.74;100.00;100585.91;5034895;28;20245;-77
2023/06/21 07:16:55;;;;;;;64.55;12.88;;;;;;;23.73;100.00;100588.66;5018707;28;20242;-78
2023/06/21 07:19:22;;;;;;;29.52;6.78;;;;;;;23.64;100.00;100581.84;5033497;28;20237;-77
2023/06/21 07:21:49;;;;;;;84.95;46.22;;;;;;;23.63;100.00;100579.19;5036494;28;20232;-76
2023/06/21 07:24:16;;;;;;;23.90;5.22;;;;;;;23.72;100.00;100574.28;5037332;28;20300;-77
2023/06/21 07:26:43;;;;;;;46.30;9.70;;;;;;;23.72;100.00;100541.88;5039658;28;20612;-76
2023/06/21 07:29:10;;;;;;;27.17;6.35;;;;;;;23.94;100.00;100552.63;5041715;28;20244;-77
2023/06/21 07:31:37;;;;;;;30.60;6.82;;;;;;;24.16;100.00;100537.19;5037557;28;20230;-78
2023/06/21 07:34:07;;;;;;;31.55;6.43;;;;;;;24.00;100.00;100483.94;5038534;28;20233;-77
2023/06/21 07:36:36;;;;;;;25.33;7.43;;;;;;;24.48;100.00;100529.47;5036251;28;20236;-78
2023/06/21 07:39:07;;;;;;;32.25;9.40;;;;;;;24.35;100.00;100491.31;5041139;28;20264;-78
2023/06/21 07:41:34;;;;;;;32.13;9.18;;;;;;;24.42;100.00;100444.13;5041716;28;20221;-78
2023/06/21 07:44:01;;;;;;;38.63;8.32;;;;;;;24.28;100.00;100445.72;5040908;28;20229;-77
2023/06/21 07:46:28;;;;;;;28.58;5.50;;;;;;;24.52;100.00;100440.03;5038492;28;20302;-78
2023/06/21 07:48:54;;;;;;;40.90;8.65;;;;;;;24.52;100.00;100458.06;5015258;28;20230;-79
2023/06/21 07:51:21;;;;;;;31.10;6.03;;;;;;;24.85;100.00;100448.34;5044621;28;20225;-79
2023/06/21 07:53:48;;;;;;;58.58;11.25;;;;;;;25.24;100.00;100406.72;5023262;28;20237;-78
2023/06/21 07:56:16;;;;;;;31.63;6.10;;;;;;;25.25;100.00;100388.66;5045879;28;20249;-78
2023/06/21 07:58:43;;;;;;;40.25;7.72;;;;;;;25.48;100.00;100397.31;5034577;28;20240;-79
2023/06/21 08:01:12;;;;;;;30.35;6.05;;;;;;;25.06;100.00;100353.56;4986530;28;20673;-78
2023/06/21 08:03:40;;;;;;;43.78;21.08;;;;;;;25.24;100.00;100349.88;5035302;28;20237;-78
2023/06/21 08:06:07;;;;;;;41.78;8.52;;;;;;;25.27;100.00;100351.56;5025190;28;20316;-78
2023/06/21 08:08:33;;;;;;;26.17;5.30;;;;;;;25.27;100.00;100338.91;5043926;28;20221;-78
2023/06/21 08:11:00;;;;;;;37.47;20.35;;;;;;;25.68;100.00;100389.97;5032384;28;20314;-78
2023/06/21 08:13:27;;;;;;;38.45;21.30;;;;;;;25.77;100.00;100343.44;5033084;28;20233;-78
2023/06/21 08:15:54;;;;;;;64.20;16.38;;;;;;;25.53;100.00;100305.00;5039138;28;20248;-78
2023/06/21 08:18:21;;;;;;;28.58;12.25;;;;;;;25.63;100.00;100316.19;5044032;28;20229;-79
2023/06/21 08:20:47;;;;;;;71.00;30.50;;;;;;;25.35;100.00;100278.94;5033416;28;20226;-78
2023/06/21 08:23:14;;;;;;;28.67;7.43;;;;;;;25.19;100.00;100265.34;5043313;28;20229;-78
2023/06/21 08:25:41;;;;;;;45.25;19.58;;;;;;;25.41;100.00;100300.25;5040680;28;20228;-78
2023/06/21 08:28:08;;;;;;;20.75;7.13;;;;;;;25.36;100.00;100302.34;5042971;28;20240;-78
2023/06/21 08:30:35;;;;;;;32.72;22.70;;;;;;;25.47;100.00;100286.38;5044851;28;20234;-78
2023/06/21 08:33:02;;;;;;;41.55;23.42;;;;;;;25.35;100.00;100279.81;5040946;28;20240;-78
2023/06/21 08:35:30;;;;;;;28.77;12.02;;;;;;;25.31;100.00;100294.47;5044308;28;20234;-78
2023/06/21 08:37:58;;;;;;;63.47;12.80;;;;;;;25.23;100.00;100282.31;5039283;28;20413;-78
2023/06/21 08:40:37;;;;;;;41.67;7.93;;;;;;;24.96;100.00;100292.72;5042909;28;20225;-78
2023/06/21 08:43:05;;;;;;;33.80;6.85;;;;;;;25.14;100.00;100308.91;5040048;28;20287;-77
2023/06/21 08:45:32;;;;;;;30.35;5.75;;;;;;;25.07;100.00;100293.94;5040679;28;20257;-77
2023/06/21 08:48:02;;;;;;;39.42;7.95;;;;;;;25.19;100.00;100297.81;5039215;28;20245;-77
2023/06/21 08:50:30;;;;;;;26.75;5.25;;;;;;;25.30;100.00;100284.59;5043481;28;20230;-77
2023/06/21 08:52:59;;;;;;;63.35;12.38;;;;;;;25.31;100.00;100283.63;5021437;28;20296;-78
2023/06/21 08:55:28;;;;;;;30.50;5.82;;;;;;;25.43;100.00;100271.25;5041892;28;20701;-78
2023/06/21 08:57:57;;;;;;;69.10;15.55;;;;;;;25.39;100.00;100256.16;4992698;28;20238;-76
2023/06/21 09:00:29;;;;;;;33.03;8.35;;;;;;;25.42;100.00;100223.50;5005843;28;20237;-78
2023/06/21 09:03:04;;;;;;;85.80;16.63;;;;;;;25.36;100.00;100218.41;5000125;28;20299;-77
2023/06/21 09:05:56;;;;;;;31.08;6.22;;;;;;;25.75;100.00;100251.41;5005860;28;20678;-78
2023/06/21 09:08:23;;;;;;;31.52;5.93;;;;;;;25.88;100.00;100288.66;5040305;28;20237;-78
2023/06/21 09:10:52;;;;;;;61.97;12.25;;;;;;;26.08;100.00;100321.81;5021156;28;20722;-77
2023/06/21 09:13:19;;;;;;;34.72;6.70;;;;;;;25.90;100.00;100297.56;5042750;28;20228;-78
2023/06/21 09:15:48;;;;;;;60.65;12.73;;;;;;;25.96;100.00;100298.09;5037779;28;20240;-77
2023/06/21 09:18:16;;;;;;;31.33;6.35;;;;;;;25.87;100.00;100274.22;5024779;28;20257;-77
2023/06/21 09:20:47;;;;;;;34.80;6.65;;;;;;;25.94;100.00;100282.88;5039965;28;20221;-78
2023/06/21 09:23:14;;;;;;;38.70;7.40;;;;;;;26.40;100.00;100327.25;5041637;28;20712;-79
2023/06/21 09:25:43;;;;;;;51.03;27.05;;;;;;;26.40;100.00;100287.47;5046544;28;20241;-77
2023/06/21 09:28:09;;;;;;;33.63;6.45;;;;;;;26.00;100.00;100250.03;5029512;28;20234;-79
2023/06/21 09:30:36;;;;;;;36.53;7.05;;;;;;;26.00;100.00;100239.19;5025252;28;20285;-80
2023/06/21 09:33:05;;;;;;;36.33;8.10;;;;;;;26.06;100.00;100250.56;5016941;28;20232;-76
2023/06/21 09:35:32;;;;;;;34.70;7.22;;;;;;;25.46;100.00;100187.16;5044957;28;20234;-78
2023/06/21 09:37:59;;;;;;;38.25;7.93;;;;;;;25.20;100.00;100175.97;5037951;28;20248;-77
2023/06/21 09:40:26;;;;;;;38.97;12.40;;;;;;;25.43;100.00;100200.88;5043103;28;20280;-78
2023/06/21 09:42:53;;;;;;;48.90;18.30;;;;;;;25.96;100.00;100262.88;5023029;28;20273;-77
2023/06/21 09:45:20;;;;;;;27.25;5.38;;;;;;;26.17;100.00;100271.63;5011456;28;20233;-78
2023/06/21 09:47:47;;;;;;;56.63;10.90;;;;;;;26.36;100.00;100252.50;5024268;28;20226;-78
2023/06/21 09:50:14;;;;;;;29.50;6.05;;;;;;;26.33;100.00;100253.53;5043563;28;20233;-77
2023/06/21 09:52:45;;;;;;;34.83;7.10;;;;;;;26.07;100.00;100230.63;5038201;28;20229;-77
2023/06/21 09:55:16;;;;;;;34.53;6.45;;;;;;;26.11;100.00;100232.22;5040826;28;20289;-77
2023/06/21 09:57:43;;;;;;;63.25;18.83;;;;;;;26.10;100.00;100227.75;5037391;28;20259;-78
2023/06/21 10:00:11;;;;;;;33.10;6.68;;;;;;;26.26;100.00;100237.69;5019459;28;20306;-78
2023/06/21 10:02:42;;;;;;;36.15;10.68;;;;;;;26.34;100.00;100211.91;5024449;28;20325;-78
2023/06/21 10:05:19;;;;;;;37.42;18.77;;;;;;;26.53;100.00;100210.81;5039218;28;20225;-80
2023/06/21 10:07:46;;;;;;;69.35;18.52;;;;;;;26.34;100.00;100178.50;5040329;28;20237;-80
2023/06/21 10:10:14;;;;;;;29.40;6.00;;;;;;;26.15;100.00;100174.16;5045631;28;20233;-80
2023/06/21 10:12:51;;;;;;;39.88;15.80;;;;;;;25.98;100.00;100154.41;5041337;28;20279;-80
2023/06/21 10:15:22;;;;;;;33.90;9.82;;;;;;;26.49;100.00;100193.84;5028664;28;20240;-80
2023/06/21 10:17:49;;;;;;;83.57;19.70;;;;;;;26.39;100.00;100170.97;5020150;28;20237;-79
2023/06/21 10:20:31;;;;;;;30.73;6.53;;;;;;;26.39;100.00;100154.69;5043420;28;20230;-80
2023/06/21 10:23:00;;;;;;;60.92;12.45;;;;;;;26.48;100.00;100167.69;5016970;28;20562;-78
2023/06/21 10:25:28;;;;;;;32.17;6.75;;;;;;;27.16;100.00;100178.84;5026281;28;20233;-80
2023/06/21 10:27:58;;;;;;;74.20;14.43;;;;;;;26.76;100.00;100131.59;5021068;28;20237;-81
2023/06/21 10:30:27;;;;;;;36.40;7.10;;;;;;;27.00;100.00;100173.50;5026014;28;20226;-81
2023/06/21 10:32:55;;;;;;;82.28;14.35;;;;;;;26.92;100.00;100139.66;5020659;28;20248;-81
2023/06/21 10:35:25;;;;;;;44.33;9.00;;;;;;;27.09;100.00;100153.03;5024805;28;20234;-81
2023/06/21 10:38:03;;;;;;;103.55;18.00;;;;;;;26.45;100.00;100075.69;5036096;28;20312;-80
2023/06/21 10:40:35;;;;;;;30.90;5.93;;;;;;;27.22;100.00;100147.72;5035785;28;20228;-78
2023/06/21 10:43:02;;;;;;;57.28;9.50;;;;;;;26.88;100.00;100090.13;5020816;28;20254;-77
2023/06/21 10:45:30;;;;;;;39.85;7.82;;;;;;;27.32;100.00;100119.03;5037656;28;20228;-77
2023/06/21 10:47:57;;;;;;;76.90;14.70;;;;;;;27.29;100.00;100097.47;5004993;28;20283;-78
2023/06/21 10:50:24;;;;;;;41.78;8.85;;;;;;;27.22;100.00;100060.84;5038181;28;20232;-77
2023/06/21 10:52:54;;;;;;;65.05;13.48;;;;;;;27.75;100.00;100079.03;5030553;28;20222;-77
2023/06/21 10:55:21;;;;;;;35.63;8.00;;;;;;;27.77;100.00;100090.69;5022391;28;20225;-77
2023/06/21 10:57:55;;;;;;;62.45;11.45;;;;;;;27.56;100.00;100068.50;5015799;28;20229;-77
2023/06/21 11:00:23;;;;;;;32.40;6.28;;;;;;;27.53;100.00;100097.72;5037105;28;20229;-78
2023/06/21 11:02:50;;;;;;;69.70;13.00;;;;;;;27.82;100.00;100112.97;5021123;28;20226;-78
2023/06/21 11:05:23;;;;;;;33.47;6.30;;;;;;;28.43;100.00;100124.25;5028081;28;20236;-79
2023/06/21 11:07:54;;;;;;;59.88;11.65;;;;;;;28.58;100.00;100079.63;5040814;28;20217;-79
2023/06/21 11:10:46;;;;;;;45.42;8.68;;;;;;;28.28;100.00;100010.13;5036171;28;20221;-79
2023/06/21 11:13:14;;;;;;;50.30;29.58;;;;;;;28.53;100.00;100049.16;5013450;28;20222;-79